OROVILLE DAM (ORO)

Elevation: 900' · FEATHER R basin · Operator: CA Dept of Water Resources/O & M

Provisional data, subject to change.
Query executed Tuesday at 16:43:38   clock

Select a sensor type for a plot of data.
Note: Reservoir Flows are daily averages.

Earlier

Date RES ELE    STORAGE    RES CHG    TOC STO    ABV TOC    OUTFLOW    INFLOW    EVAP    FNF    PPT INC    RAIN    PPTINC4   
 FEET   AF   AF   AF   AF   CFS   CFS   CFS   CFS   INCHES   INCHES   INCHES  
09/01/2014 678.92 1100873 487 3538000 -2437127 2329 2660 85 827 e 0.00 19.28 0.00
09/02/2014 678.49 1097883 -2990 3538000 -2440117 2325 874 56 827 e 0.00 19.28 0.00
09/03/2014 678.78 1099900 2017 3538000 -2438100 664 1766 85 827 e 0.00 19.28 0.00
09/04/2014 678.51 1098022 -1878 3538000 -2439978 2447 1616 80 484 0.00 19.28 0.00
09/05/2014 678.25 1096217 -1805 3538000 -2441783 2430 1569 85 701 0.00 19.28 0.00
09/06/2014 677.97 1094275 -1942 3538000 -2443725 2244 1382 82 710 0.00 19.28 0.00
09/07/2014 677.75 1092751 -1524 3538000 -2445249 2175 1442 71 762 e 0.00 19.28 0.00
09/08/2014 677.78 1092959 208 3538000 -2445041 2173 2390 78 762 e 0.00 19.28 0.00
09/09/2014 677.58 1091575 -1384 3538000 -2446425 1965 1339 73 857 e 0.00 19.28 0.00
09/10/2014 677.25 1089293 -2282 3538000 -2448707 1967 918 66 857 e 0.00 19.28 0.00
09/11/2014 677.36 1090053 760 3538000 -2447947 1741 2178 89 768 e 0.00 19.28 0.00
09/12/2014 677.11 1088326 -1727 3538000 -- 1861 1059 103 778 e 0.00 19.28 0.00
09/13/2014 677.06 1087981 -345 3538000 -- 1860 1815 94 778 e 0.00 19.28 0.00
09/14/2014 676.87 1086670 -1311 3538000 -2451330 1861 1282 82 681 0.00 19.28 0.00
09/15/2014 676.55 1084464 -2206 3538000 -2453536 1858 828 117 863 0.00 19.28 0.00
09/16/2014 676.78 1086050 1586 3525500 -2439450 1861 2739 79 968 e 0.00 19.28 0.00
09/17/2014 676.49 1084051 -1999 3513000 -2428949 1858 919 68 968 e 0.00 19.28 0.00
09/18/2014 676.44 1083707 -344 3500500 -2416793 1841 1751 84 695 0.00 19.28 0.00
09/19/2014 676.37 1083225 -482 3488000 -2404775 1856 1655 42 945 0.00 19.28 0.00
09/20/2014 676.31 1082812 -413 3475500 -2392688 1855 1706 58 1052 0.00 19.28 0.00
09/21/2014 676.22 1082193 -619 3463000 -2380807 1855 1636 58 1125 0.00 19.28 0.00
09/22/2014 676.19 1081987 -206 3450500 -2368513 1848 1759 14 681 0.00 19.28 0.00
09/23/2014 676.15 1081712 -275 3438000 -2356288 1866 1737 44 909 0.00 19.28 0.00
09/24/2014 675.97 1080475 -1237 3425500 -2345025 1861 1298 60 249 0.00 19.28 0.00
09/25/2014 676.27 1082537 2062 3413000 -2330463 786 1882 56 1846 0.88 20.16 0.28
09/26/2014 676.18 1081918 -619 3400500 -2318582 1951 1727 53 1124 0.00 20.16 0.60
09/27/2014 675.90 1079994 -1924 3388000 -2308006 2038 1080 46 794 0.00 20.16 0.00
09/28/2014 675.90 1079994 0 3375500 -2295506 2055 2101 46 2748 0.00 20.16 0.00
09/29/2014 675.58 1077798 -2196 3363000 -2285202 2064 992 0 -- 0.00 20.16 0.00
09/30/2014 -- -- -- -- -- -- -- -- -- -- -- 0.00

Later | Latest

Warning! This data is preliminary and subject to revision.

Download Data Now Download Data Now | Show ORO Map | Plot ORO Data | 1 Month ORO Data | Real-Time ORO Data | ORO Info